Capitol Logistics 371


KMIA
Miami International Airport
Miami, Florida, US
KCLT
Charlotte/Douglas International Airport
Charlotte, North Carolina, US

Route Details

Aircraft Information
Primary: Boeing 767-300BDSF
Backup: Not Available
Route Data
Distance: 567nm
Sched. Duration: 1h 55m
Avg. Duration: 1h 60m (+5m)
Times Flown: 5
Recm'd Route: HEDLY2 HEDLY STYMY ZERBO Q87 VIYAP CHECR STOCR3
Planned Altitude: 35,000ft
Origin Wx: KMIA 260553Z 01003KT 10SM FEW020 SCT070 OVC090 25/23 A2993 RMK AO2 RAB14E29 SLP135 P0000 60016 T02500233 10267 20244 58011 $
Dest. Wx: KCLT 260624Z 04007KT 10SM OVC005 12/11 A3012 RMK AO2 T01170106 $
Notes:

Financial History
Total Freight: 430,689lbs
Average Load: 86,138lbs/flt
Fuel Used: 93,379lbs
Avg. Fuel Used: 18,676lbs/flt
Fuel Expense: $114,856
Avg. Fuel Expense: $22,971
Avg. Fuel Cost: $1.23/lbs
Total Gross Income: $590,763
Pilot Pay: $965
Total Expenses: $64,062
Total Revenue: $410,347
Average Revenue: $118,152.64